Time;durP1;ratioP1;P1;durP2;ratioP2;P2;SDS_P1;SDS_P2;PMS_P1;PMS_P2;Temp;Humidity;BMP_temperature;BMP_pressure;BME280_temperature;BME280_humidity;BME280_pressure;Samples;Min_cycle;Max_cycle;Signal;HPM_P1;HPM_P2
2023/05/28 00:00:18;;;;;;;5.93;2.80;;;;;;;16.24;51.08;99633.66;331610;28;17726;-79
2023/05/28 00:00:30;;;;;;;5.72;2.90;;;;;;;16.23;51.26;99628.50;334533;28;4509;-79
2023/05/28 00:00:44;;;;;;;6.43;3.05;;;;;;;16.18;51.13;99636.63;331234;28;16950;-79
2023/05/28 00:00:56;;;;;;;5.25;2.88;;;;;;;16.20;51.60;99633.88;331159;29;5298;-78
2023/05/28 00:01:08;;;;;;;5.03;2.75;;;;;;;16.14;51.32;99629.84;335150;29;4570;-80
2023/05/28 00:01:21;;;;;;;6.40;2.70;;;;;;;16.16;50.91;99638.47;331468;28;4644;-78
2023/05/28 00:01:33;;;;;;;5.72;2.60;;;;;;;16.14;51.30;99641.19;334402;28;5261;-79
2023/05/28 00:01:46;;;;;;;6.28;2.83;;;;;;;16.13;51.26;99639.47;334279;28;5148;-79
2023/05/28 00:01:58;;;;;;;5.45;2.92;;;;;;;16.14;51.34;99640.34;331112;28;18410;-80
2023/05/28 00:02:10;;;;;;;4.88;2.72;;;;;;;16.14;51.01;99640.34;331118;28;5454;-80
2023/05/28 00:02:22;;;;;;;6.28;2.47;;;;;;;16.11;50.85;99636.09;331550;28;16690;-79
2023/05/28 00:02:34;;;;;;;6.00;2.35;;;;;;;16.09;51.16;99634.50;331876;28;4791;-79
2023/05/28 00:02:47;;;;;;;6.32;2.65;;;;;;;16.11;51.17;99640.50;331763;28;10889;-80
2023/05/28 00:02:59;;;;;;;6.00;2.78;;;;;;;16.09;51.18;99631.88;333613;29;4585;-79
2023/05/28 00:03:12;;;;;;;5.97;2.75;;;;;;;16.14;51.05;99640.34;336492;28;18145;-79
2023/05/28 00:03:25;;;;;;;4.97;2.60;;;;;;;16.12;50.89;99632.56;339525;28;5353;-79
2023/05/28 00:03:37;;;;;;;5.45;2.67;;;;;;;16.13;51.03;99633.41;335107;28;9046;-79
2023/05/28 00:03:49;;;;;;;6.63;2.83;;;;;;;16.13;50.92;99639.47;338789;28;4508;-80
2023/05/28 00:04:02;;;;;;;6.15;2.78;;;;;;;16.08;51.78;99638.06;336219;28;17989;-79
2023/05/28 00:04:15;;;;;;;4.97;2.60;;;;;;;16.10;51.44;99636.22;340734;28;4640;-80
2023/05/28 00:04:27;;;;;;;5.07;2.75;;;;;;;16.11;51.95;99636.09;338475;28;17816;-79
2023/05/28 00:04:40;;;;;;;4.57;2.60;;;;;;;16.14;51.74;99635.09;341456;28;5290;-79
2023/05/28 00:04:53;;;;;;;4.10;2.60;;;;;;;16.18;51.18;99636.63;337855;28;17519;-78
2023/05/28 00:05:06;;;;;;;4.85;2.92;;;;;;;16.15;51.43;99636.78;339979;28;4664;-79
2023/05/28 00:05:18;;;;;;;5.97;2.78;;;;;;;16.09;50.68;99632.72;332729;28;18584;-79
2023/05/28 00:05:30;;;;;;;6.03;2.80;;;;;;;16.01;51.25;99634.09;334873;29;4544;-79
2023/05/28 00:05:42;;;;;;;4.72;2.58;;;;;;;16.04;51.44;99639.16;331654;29;18100;-79
2023/05/28 00:05:54;;;;;;;5.30;2.88;;;;;;;16.05;51.46;99631.19;333680;28;5076;-79
2023/05/28 00:06:06;;;;;;;5.72;2.80;;;;;;;16.10;51.46;99636.22;329943;29;17951;-78
2023/05/28 00:06:18;;;;;;;4.88;2.67;;;;;;;16.12;51.14;99636.97;333518;28;4496;-78
2023/05/28 00:06:30;;;;;;;4.60;2.80;;;;;;;16.11;51.08;99637.88;333565;28;4510;-79
2023/05/28 00:06:42;;;;;;;4.70;2.78;;;;;;;16.07;50.91;99633.75;330709;29;18001;-80
2023/05/28 00:06:55;;;;;;;5.28;2.85;;;;;;;16.06;51.00;99642.56;334384;29;4545;-78
2023/05/28 00:07:10;;;;;;;5.63;2.85;;;;;;;16.06;50.62;99637.31;331769;29;18356;-78
2023/05/28 00:07:24;;;;;;;4.88;2.72;;;;;;;16.05;50.71;99635.59;332570;28;17766;-78
2023/05/28 00:07:36;;;;;;;5.28;2.70;;;;;;;16.02;50.57;99636.63;332478;29;5206;-78
2023/05/28 00:07:48;;;;;;;5.45;2.92;;;;;;;16.03;50.34;99632.22;331234;29;17881;-78
2023/05/28 00:08:00;;;;;;;5.07;3.05;;;;;;;16.02;51.83;99638.38;335737;28;5346;-78
2023/05/28 00:08:13;;;;;;;5.60;3.08;;;;;;;16.02;51.42;99638.38;332235;28;17981;-78
2023/05/28 00:08:26;;;;;;;5.65;2.90;;;;;;;15.99;51.64;99636.78;332205;29;4708;-78
2023/05/28 00:08:38;;;;;;;5.93;2.80;;;;;;;16.02;52.35;99635.75;334503;29;4624;-78
2023/05/28 00:08:50;;;;;;;5.82;2.80;;;;;;;16.05;52.16;99635.59;335394;29;4592;-78
2023/05/28 00:09:02;;;;;;;5.30;2.85;;;;;;;16.10;51.36;99638.81;332822;28;18442;-78
2023/05/28 00:09:14;;;;;;;6.90;2.80;;;;;;;16.11;51.56;99630.84;335971;29;4577;-78
2023/05/28 00:09:26;;;;;;;7.43;2.70;;;;;;;16.09;51.75;99634.50;332283;29;17861;-78
2023/05/28 00:09:40;;;;;;;6.65;2.72;;;;;;;16.11;51.55;99632.63;335064;29;4642;-78
2023/05/28 00:09:52;;;;;;;6.35;2.80;;;;;;;16.12;51.62;99626.47;333885;28;18167;-78
2023/05/28 00:10:05;;;;;;;5.80;2.88;;;;;;;16.14;51.98;99635.09;337398;28;6316;-78
2023/05/28 00:10:17;;;;;;;5.28;2.70;;;;;;;16.12;51.60;99631.72;331796;28;4702;-78
2023/05/28 00:10:29;;;;;;;4.93;2.50;;;;;;;16.11;51.92;99636.09;335702;29;4471;-78
2023/05/28 00:10:42;;;;;;;4.97;2.53;;;;;;;16.13;51.33;99636.03;333284;28;8745;-78
2023/05/28 00:10:59;;;;;;;5.53;2.60;;;;;;;16.14;51.57;99624.63;335301;28;4503;-78
2023/05/28 00:11:12;;;;;;;5.80;2.70;;;;;;;16.13;51.79;99634.22;330168;28;17409;-78
2023/05/28 00:11:24;;;;;;;6.28;2.83;;;;;;;16.13;51.47;99633.41;333144;29;4649;-78
2023/05/28 00:11:36;;;;;;;6.90;2.60;;;;;;;16.11;52.51;99630.00;333043;29;4595;-78
2023/05/28 00:11:48;;;;;;;6.00;2.60;;;;;;;16.13;51.94;99628.16;331239;28;17930;-78
2023/05/28 00:12:01;;;;;;;9.32;2.83;;;;;;;16.06;52.33;99632.06;333546;28;4719;-78
2023/05/28 00:12:13;;;;;;;8.35;3.05;;;;;;;16.06;52.21;99632.06;330464;28;18212;-78
2023/05/28 00:12:25;;;;;;;8.50;3.10;;;;;;;16.08;51.99;99635.44;333519;28;5108;-78
2023/05/28 00:12:38;;;;;;;8.00;3.10;;;;;;;16.09;52.24;99637.13;337316;28;19402;-78
2023/05/28 00:12:53;;;;;;;7.20;3.10;;;;;;;16.09;51.84;99631.88;339673;28;4616;-78
2023/05/28 00:13:05;;;;;;;5.63;3.00;;;;;;;16.11;51.79;99635.25;338721;28;18041;-78
2023/05/28 00:13:17;;;;;;;6.47;3.00;;;;;;;16.09;51.18;99631.88;338944;28;18643;-78
2023/05/28 00:13:30;;;;;;;5.78;3.00;;;;;;;16.05;51.38;99628.56;341272;28;4463;-78
2023/05/28 00:13:42;;;;;;;6.53;2.85;;;;;;;16.07;52.20;99631.13;338525;28;18237;-78
2023/05/28 00:13:54;;;;;;;6.32;2.90;;;;;;;16.07;51.66;99629.34;340214;28;4661;-78
2023/05/28 00:14:06;;;;;;;7.28;3.05;;;;;;;16.11;51.55;99630.84;340039;28;5323;-78
2023/05/28 00:14:18;;;;;;;6.00;2.80;;;;;;;16.09;51.66;99631.88;338180;28;17905;-78
2023/05/28 00:14:30;;;;;;;6.43;2.90;;;;;;;16.06;51.11;99632.06;338054;28;4546;-78
2023/05/28 00:14:42;;;;;;;5.60;2.67;;;;;;;16.05;52.01;99628.56;333321;28;18738;-78
2023/05/28 00:14:54;;;;;;;5.90;2.83;;;;;;;16.04;52.51;99623.44;333284;29;4686;-78
2023/05/28 00:15:07;;;;;;;5.40;2.80;;;;;;;16.06;52.32;99624.19;329278;28;18118;-78
2023/05/28 00:15:20;;;;;;;5.65;2.67;;;;;;;16.03;51.38;99632.22;332510;29;4462;-78
2023/05/28 00:15:32;;;;;;;7.07;2.83;;;;;;;16.00;51.20;99635.00;330537;28;19176;-78
2023/05/28 00:15:44;;;;;;;8.55;2.97;;;;;;;15.94;50.91;99626.56;333373;29;4497;-78
2023/05/28 00:15:57;;;;;;;9.18;3.10;;;;;;;15.87;52.53;99629.59;330887;28;18357;-78
2023/05/28 00:16:09;;;;;;;7.65;2.97;;;;;;;15.90;52.04;99632.91;333402;29;4510;-78
2023/05/28 00:16:21;;;;;;;6.85;2.95;;;;;;;15.91;51.71;99629.34;333261;29;5192;-78
2023/05/28 00:16:35;;;;;;;6.30;2.88;;;;;;;15.95;51.69;99627.41;330399;29;18138;-78
2023/05/28 00:16:47;;;;;;;6.30;2.70;;;;;;;15.91;50.92;99624.09;330655;28;10017;-78
2023/05/28 00:17:00;;;;;;;9.00;2.70;;;;;;;15.85;51.29;99629.66;333108;29;4569;-78
2023/05/28 00:17:12;;;;;;;8.48;2.53;;;;;;;15.84;51.59;99632.41;331139;29;18861;-78
2023/05/28 00:17:24;;;;;;;7.55;2.50;;;;;;;15.90;51.64;99622.41;335778;29;4668;-78
2023/05/28 00:17:36;;;;;;;5.95;2.50;;;;;;;15.92;51.79;99628.41;332211;29;6421;-78
2023/05/28 00:17:48;;;;;;;5.22;2.60;;;;;;;15.93;51.91;99626.63;331853;29;18146;-79
2023/05/28 00:18:01;;;;;;;4.80;2.47;;;;;;;15.93;51.61;99624.00;334586;29;4540;-78
2023/05/28 00:18:14;;;;;;;4.57;2.50;;;;;;;15.93;51.63;99626.63;331965;28;18168;-78
2023/05/28 00:18:28;;;;;;;5.60;2.63;;;;;;;15.95;51.51;99630.03;331864;28;10397;-78
2023/05/28 00:18:40;;;;;;;7.82;3.00;;;;;;;15.91;52.52;99624.09;333692;28;5117;-78
2023/05/28 00:18:52;;;;;;;8.43;3.20;;;;;;;15.95;52.02;99630.84;331503;29;19270;-78
2023/05/28 00:19:04;;;;;;;7.25;2.70;;;;;;;15.97;51.75;99631.63;333312;29;4677;-78
2023/05/28 00:19:16;;;;;;;5.68;2.50;;;;;;;15.96;51.93;99621.25;332541;28;4569;-78
2023/05/28 00:19:28;;;;;;;5.40;2.55;;;;;;;15.96;51.86;99627.31;332865;28;17401;-78
2023/05/28 00:19:40;;;;;;;5.18;2.90;;;;;;;15.93;52.21;99622.22;332004;29;4665;-78
2023/05/28 00:19:52;;;;;;;5.40;3.00;;;;;;;15.92;52.58;99631.03;328618;28;17777;-78
2023/05/28 00:20:05;;;;;;;6.80;3.20;;;;;;;15.92;52.24;99620.56;332484;28;4514;-78
2023/05/28 00:20:19;;;;;;;6.90;3.10;;;;;;;15.90;52.30;99624.19;329274;29;18098;-78
2023/05/28 00:20:31;;;;;;;5.55;2.75;;;;;;;15.91;52.28;99624.09;330562;28;9913;-78
2023/05/28 00:20:43;;;;;;;5.15;2.67;;;;;;;15.91;52.48;99626.72;333768;28;5053;-78
2023/05/28 00:20:56;;;;;;;5.03;2.83;;;;;;;15.95;52.59;99628.22;334605;28;4531;-78
2023/05/28 00:21:08;;;;;;;6.40;2.88;;;;;;;15.92;52.24;99625.78;331710;29;18310;-78
2023/05/28 00:21:20;;;;;;;7.00;2.80;;;;;;;15.93;51.95;99630.09;333232;28;4663;-78
2023/05/28 00:21:33;;;;;;;6.88;2.85;;;;;;;15.94;52.65;99626.56;330516;28;18366;-78
2023/05/28 00:21:45;;;;;;;6.15;2.80;;;;;;;15.94;52.75;99618.69;333484;29;4579;-78
2023/05/28 00:21:57;;;;;;;6.25;2.72;;;;;;;15.95;53.10;99630.03;331519;29;18372;-78
2023/05/28 00:22:10;;;;;;;6.38;2.67;;;;;;;15.96;52.63;99627.31;334602;29;4576;-78
2023/05/28 00:22:21;;;;;;;5.68;2.50;;;;;;;16.00;52.18;99627.13;331624;29;17989;-78
2023/05/28 00:22:35;;;;;;;5.78;2.50;;;;;;;16.00;52.10;99628.00;334373;29;4561;-78
2023/05/28 00:22:47;;;;;;;4.63;2.67;;;;;;;16.03;51.74;99626.97;333137;29;18032;-78
2023/05/28 00:22:59;;;;;;;5.50;2.80;;;;;;;16.01;52.36;99626.22;335666;29;4691;-78
2023/05/28 00:23:11;;;;;;;5.57;2.80;;;;;;;15.92;52.92;99625.78;336485;28;4661;-78
2023/05/28 00:23:23;;;;;;;5.90;2.65;;;;;;;15.88;51.68;99629.53;332493;28;18407;-78
2023/05/28 00:23:35;;;;;;;5.00;2.67;;;;;;;15.86;51.60;99627.91;334753;29;4891;-78
2023/05/28 00:23:47;;;;;;;5.22;2.80;;;;;;;15.86;51.74;99631.38;331937;29;16527;-78
2023/05/28 00:23:59;;;;;;;5.60;2.83;;;;;;;15.90;51.72;99629.44;334386;29;4585;-78
2023/05/28 00:24:11;;;;;;;5.88;2.78;;;;;;;15.92;51.81;99628.41;331194;29;5679;-78
2023/05/28 00:24:24;;;;;;;5.53;2.75;;;;;;;15.93;51.93;99622.22;334452;29;4625;-78
2023/05/28 00:24:37;;;;;;;6.80;2.97;;;;;;;15.94;51.79;99629.19;331801;29;17579;-78
2023/05/28 00:24:49;;;;;;;7.30;3.10;;;;;;;15.86;51.91;99626.13;333153;29;4650;-78
2023/05/28 00:25:01;;;;;;;7.30;3.10;;;;;;;15.93;51.64;99626.63;330602;28;8912;-78
2023/05/28 00:25:14;;;;;;;6.43;3.00;;;;;;;15.93;51.85;99632.72;335730;28;4579;-78
2023/05/28 00:25:26;;;;;;;5.60;2.67;;;;;;;15.97;51.70;99621.13;333636;28;5238;-78
2023/05/28 00:25:38;;;;;;;8.00;2.70;;;;;;;15.97;52.25;99629.00;329233;29;17880;-78
2023/05/28 00:25:51;;;;;;;7.88;2.78;;;;;;;15.90;52.38;99632.91;332941;28;4506;-78
2023/05/28 00:26:03;;;;;;;7.03;2.90;;;;;;;15.88;52.12;99629.53;330510;29;18179;-78
2023/05/28 00:26:15;;;;;;;5.00;2.85;;;;;;;15.89;51.90;99631.19;332179;29;5283;-78
2023/05/28 00:26:27;;;;;;;5.93;2.83;;;;;;;15.91;51.89;99634.56;329911;29;17789;-78
2023/05/28 00:26:40;;;;;;;6.95;2.88;;;;;;;15.93;51.62;99630.09;333125;28;4543;-78
2023/05/28 00:26:51;;;;;;;5.57;2.63;;;;;;;15.93;52.05;99632.72;330847;29;16426;-78
2023/05/28 00:27:04;;;;;;;4.68;2.55;;;;;;;15.95;51.54;99630.84;334627;29;4531;-78
2023/05/28 00:27:16;;;;;;;4.50;2.60;;;;;;;15.96;51.77;99631.72;334006;28;4751;-78
2023/05/28 00:27:28;;;;;;;5.65;2.55;;;;;;;15.97;51.68;99628.16;331087;28;18172;-78
2023/05/28 00:27:40;;;;;;;6.25;2.75;;;;;;;15.97;51.63;99630.78;333375;28;4916;-78
2023/05/28 00:27:52;;;;;;;6.45;2.95;;;;;;;15.96;51.39;99635.19;330606;28;16151;-78
2023/05/28 00:28:04;;;;;;;7.25;2.97;;;;;;;15.96;51.56;99629.94;333467;28;4558;-78
2023/05/28 00:28:16;;;;;;;7.10;2.80;;;;;;;15.98;51.65;99629.88;334493;28;4505;-78
2023/05/28 00:28:28;;;;;;;6.93;2.80;;;;;;;15.92;52.03;99633.66;333122;28;19163;-78
2023/05/28 00:28:40;;;;;;;6.10;2.70;;;;;;;15.78;51.88;99628.34;336604;28;5217;-78
2023/05/28 00:28:52;;;;;;;8.20;2.95;;;;;;;15.75;51.92;99633.72;333313;28;16179;-78
2023/05/28 00:29:04;;;;;;;8.85;3.17;;;;;;;15.76;51.71;99630.19;335906;29;4512;-78
2023/05/28 00:29:16;;;;;;;8.50;3.40;;;;;;;15.82;52.03;99629.84;332894;28;11270;-78
2023/05/28 00:29:29;;;;;;;6.47;3.10;;;;;;;15.80;52.17;99626.47;335807;29;4627;-78
2023/05/28 00:29:43;;;;;;;5.68;3.05;;;;;;;15.83;52.11;99636.78;333249;28;8969;-78
2023/05/28 00:29:55;;;;;;;5.13;2.90;;;;;;;15.83;52.36;99635.94;335909;29;5041;-78
2023/05/28 00:30:10;;;;;;;5.10;2.72;;;;;;;15.81;52.11;99633.38;332715;29;18517;-78
2023/05/28 00:30:24;;;;;;;6.18;2.80;;;;;;;15.80;52.34;99629.09;333252;28;17502;-78
2023/05/28 00:30:36;;;;;;;7.03;3.00;;;;;;;15.82;52.06;99632.47;333004;29;5134;-78
2023/05/28 00:30:48;;;;;;;5.65;2.92;;;;;;;15.81;51.82;99629.94;335553;29;4468;-78
2023/05/28 00:31:02;;;;;;;4.45;2.72;;;;;;;15.84;52.02;99635.84;336176;28;5024;-78
2023/05/28 00:31:14;;;;;;;3.90;2.55;;;;;;;15.85;51.86;99624.44;333084;29;17904;-78
2023/05/28 00:31:26;;;;;;;4.47;2.72;;;;;;;15.86;51.68;99628.75;334967;29;4585;-78
2023/05/28 00:31:38;;;;;;;5.57;2.85;;;;;;;15.81;51.93;99630.78;334524;28;17334;-78
2023/05/28 00:31:51;;;;;;;6.22;2.97;;;;;;;15.84;51.65;99628.00;335796;29;4532;-78
2023/05/28 00:32:03;;;;;;;6.57;3.33;;;;;;;15.81;51.49;99628.16;333163;29;17946;-78
2023/05/28 00:32:15;;;;;;;6.32;3.25;;;;;;;15.81;51.74;99632.56;336152;29;5286;-78
2023/05/28 00:32:27;;;;;;;5.90;3.15;;;;;;;15.78;51.60;99634.41;333176;29;10713;-78
2023/05/28 00:32:39;;;;;;;6.22;2.83;;;;;;;15.78;51.60;99628.34;335971;28;4526;-79
2023/05/28 00:32:51;;;;;;;6.80;2.75;;;;;;;15.65;51.42;99635.13;332786;28;4601;-78
2023/05/28 00:33:03;;;;;;;6.43;2.85;;;;;;;15.72;51.78;99637.38;334004;28;5454;-78
2023/05/28 00:33:15;;;;;;;5.50;2.85;;;;;;;15.75;51.71;99629.34;334501;28;4511;-78
2023/05/28 00:33:27;;;;;;;6.28;3.00;;;;;;;15.71;51.99;99637.41;331547;28;18326;-78
2023/05/28 00:33:39;;;;;;;6.90;2.90;;;;;;;15.66;51.79;99629.81;334505;28;4559;-78
2023/05/28 00:33:51;;;;;;;7.88;2.83;;;;;;;15.69;52.08;99623.53;332050;28;7626;-78
2023/05/28 00:34:06;;;;;;;6.30;2.83;;;;;;;15.72;51.86;99629.50;335314;28;4496;-78
2023/05/28 00:34:18;;;;;;;5.60;2.83;;;;;;;15.79;51.82;99632.63;332890;29;17646;-78
2023/05/28 00:34:30;;;;;;;4.53;2.80;;;;;;;15.83;51.92;99630.69;335768;29;4655;-78
2023/05/28 00:34:42;;;;;;;4.82;2.67;;;;;;;15.81;52.55;99630.78;331967;29;18017;-78
2023/05/28 00:34:55;;;;;;;5.68;2.65;;;;;;;15.71;51.97;99632.16;335192;29;4482;-78
2023/05/28 00:35:08;;;;;;;5.38;2.78;;;;;;;15.75;52.81;99634.59;333229;28;17768;-78
2023/05/28 00:35:20;;;;;;;4.43;2.72;;;;;;;15.77;52.33;99632.75;336164;28;4948;-78
2023/05/28 00:35:32;;;;;;;4.75;2.75;;;;;;;15.81;51.85;99622.06;331757;29;16042;-78
2023/05/28 00:35:44;;;;;;;5.13;2.72;;;;;;;15.80;52.44;99631.72;334430;29;5113;-78
2023/05/28 00:35:56;;;;;;;7.18;2.80;;;;;;;15.78;52.38;99629.16;334592;29;5246;-78
2023/05/28 00:36:10;;;;;;;8.00;3.05;;;;;;;15.80;52.01;99626.47;330689;28;19650;-78
2023/05/28 00:36:22;;;;;;;7.75;3.25;;;;;;;15.73;52.28;99628.56;335667;28;18113;-78
2023/05/28 00:36:35;;;;;;;7.55;3.10;;;;;;;15.56;52.84;99632.06;342758;28;5502;-78
2023/05/28 00:36:47;;;;;;;6.55;2.88;;;;;;;15.56;52.88;99624.22;339853;28;16386;-78
2023/05/28 00:36:59;;;;;;;5.57;2.90;;;;;;;15.58;52.43;99629.38;337075;28;4621;-78
2023/05/28 00:37:11;;;;;;;7.28;2.92;;;;;;;15.56;52.44;99634.69;336429;28;4567;-78
2023/05/28 00:37:23;;;;;;;6.28;2.85;;;;;;;15.61;52.27;99631.81;332906;29;17977;-78
2023/05/28 00:37:35;;;;;;;5.85;2.85;;;;;;;15.60;52.15;99634.53;336258;28;5426;-78
2023/05/28 00:37:47;;;;;;;7.68;2.90;;;;;;;15.53;52.57;99634.88;334098;28;17828;-78
2023/05/28 00:37:59;;;;;;;7.88;2.83;;;;;;;15.52;53.24;99630.53;337089;28;5819;-78
2023/05/28 00:38:11;;;;;;;7.13;2.53;;;;;;;15.48;52.56;99636.88;336889;28;4516;-78
2023/05/28 00:38:23;;;;;;;5.65;2.50;;;;;;;15.50;52.77;99634.19;334065;28;18954;-78
2023/05/28 00:38:35;;;;;;;5.22;2.78;;;;;;;15.45;52.93;99637.03;334866;28;5026;-78
2023/05/28 00:38:47;;;;;;;5.85;3.03;;;;;;;15.41;53.25;99629.41;332708;28;18890;-78
2023/05/28 00:39:04;;;;;;;6.95;3.20;;;;;;;15.46;53.08;99636.09;335794;28;4515;-78
2023/05/28 00:39:18;;;;;;;6.73;3.00;;;;;;;15.53;53.03;99634.88;332246;28;17801;-78
2023/05/28 00:39:30;;;;;;;5.65;2.80;;;;;;;15.58;52.73;99630.22;334314;29;4573;-78
2023/05/28 00:39:42;;;;;;;6.18;2.90;;;;;;;15.60;53.51;99629.31;332835;28;18115;-78
2023/05/28 00:39:54;;;;;;;6.90;2.90;;;;;;;15.51;52.97;99626.25;335523;29;4522;-78
2023/05/28 00:40:07;;;;;;;8.57;2.90;;;;;;;15.40;52.49;99639.06;332932;28;5436;-78
2023/05/28 00:40:20;;;;;;;7.38;2.83;;;;;;;15.45;52.88;99631.78;331320;28;18188;-78
2023/05/28 00:40:32;;;;;;;5.95;2.95;;;;;;;15.46;52.90;99632.66;329995;28;4521;-78
2023/05/28 00:40:44;;;;;;;4.05;2.70;;;;;;;15.41;52.88;99630.25;333325;28;5350;-78
2023/05/28 00:40:56;;;;;;;6.55;3.00;;;;;;;15.43;53.13;99636.25;332433;28;8440;-78
2023/05/28 00:41:08;;;;;;;6.72;3.03;;;;;;;15.40;53.33;99633.81;331441;28;17470;-78
2023/05/28 00:41:22;;;;;;;5.15;2.85;;;;;;;15.40;53.03;99633.81;334961;29;4740;-78
2023/05/28 00:41:36;;;;;;;5.55;2.90;;;;;;;15.45;53.42;99629.16;333687;28;17690;-78
2023/05/28 00:41:48;;;;;;;6.15;2.85;;;;;;;15.32;53.20;99636.84;333294;29;17840;-78
2023/05/28 00:42:02;;;;;;;5.15;2.70;;;;;;;15.44;53.20;99635.34;335890;29;4488;-78
2023/05/28 00:42:14;;;;;;;6.10;2.90;;;;;;;15.32;53.81;99636.00;333521;28;18229;-78
2023/05/28 00:42:26;;;;;;;6.45;2.70;;;;;;;15.28;53.65;99629.22;337186;28;4511;-78
2023/05/28 00:42:38;;;;;;;5.93;2.70;;;;;;;15.29;53.60;99630.91;332934;28;17798;-78
2023/05/28 00:42:51;;;;;;;6.93;2.75;;;;;;;15.31;53.58;99635.16;335366;28;4493;-78
2023/05/28 00:43:03;;;;;;;7.28;2.90;;;;;;;15.34;53.56;99631.53;332332;28;18008;-78
2023/05/28 00:43:16;;;;;;;6.22;2.97;;;;;;;15.34;53.71;99634.16;334918;28;5363;-78
2023/05/28 00:43:31;;;;;;;6.30;2.90;;;;;;;15.31;54.38;99639.53;331653;29;17617;-78
2023/05/28 00:43:43;;;;;;;8.60;3.03;;;;;;;15.43;53.66;99628.41;331861;29;17936;-77
2023/05/28 00:43:55;;;;;;;8.25;3.10;;;;;;;15.50;53.33;99634.19;335374;28;4757;-78
2023/05/28 00:44:09;;;;;;;5.65;2.85;;;;;;;15.47;53.62;99629.94;332323;28;7991;-78
2023/05/28 00:44:21;;;;;;;6.22;2.90;;;;;;;15.47;53.51;99635.16;334972;29;4492;-78
2023/05/28 00:44:34;;;;;;;7.13;2.90;;;;;;;15.41;53.12;99629.41;332854;28;17641;-78
2023/05/28 00:44:47;;;;;;;7.75;3.10;;;;;;;15.41;53.50;99629.41;337181;28;4537;-78
2023/05/28 00:45:00;;;;;;;6.80;3.17;;;;;;;15.41;53.61;99634.66;335077;28;18112;-78
2023/05/28 00:45:12;;;;;;;6.68;3.10;;;;;;;15.34;53.22;99628.91;334127;28;6434;-78
2023/05/28 00:45:24;;;;;;;6.20;2.85;;;;;;;15.35;53.65;99630.56;337373;28;4677;-78
2023/05/28 00:45:36;;;;;;;6.03;2.90;;;;;;;15.33;53.30;99629.81;336701;28;4494;-78
2023/05/28 00:45:50;;;;;;;5.15;2.83;;;;;;;15.28;53.56;99624.84;334199;28;19101;-78
2023/05/28 00:46:04;;;;;;;4.63;2.70;;;;;;;15.29;53.46;99631.78;334240;28;17901;-78
2023/05/28 00:46:21;;;;;;;6.13;2.85;;;;;;;15.24;53.80;99627.69;337101;28;4605;-78
2023/05/28 00:46:33;;;;;;;8.57;3.33;;;;;;;15.32;53.56;99626.34;334250;28;17647;-78
2023/05/28 00:46:46;;;;;;;7.78;3.45;;;;;;;15.39;53.39;99632.13;336720;28;4542;-78
2023/05/28 00:46:59;;;;;;;7.55;3.58;;;;;;;15.41;53.53;99635.50;332942;28;4559;-78
2023/05/28 00:47:12;;;;;;;6.88;3.42;;;;;;;15.37;53.77;99633.97;334811;28;5013;-78
2023/05/28 00:47:24;;;;;;;5.93;3.15;;;;;;;15.29;53.59;99631.78;333264;28;18114;-78
2023/05/28 00:47:38;;;;;;;5.30;2.90;;;;;;;15.29;53.84;99629.16;336058;28;4615;-78
2023/05/28 00:47:51;;;;;;;4.90;2.80;;;;;;;15.32;53.97;99630.75;332898;28;18219;-78
2023/05/28 00:48:03;;;;;;;5.07;2.90;;;;;;;15.28;53.57;99629.22;333779;28;18147;-78
2023/05/28 00:48:15;;;;;;;5.30;2.78;;;;;;;15.25;54.68;99629.38;335398;28;4507;-78
2023/05/28 00:48:29;;;;;;;5.80;2.95;;;;;;;15.20;53.54;99628.78;332704;28;16529;-78
2023/05/28 00:48:41;;;;;;;6.18;2.90;;;;;;;15.22;54.21;99621.69;333179;28;5861;-78
2023/05/28 00:48:54;;;;;;;6.00;2.85;;;;;;;15.27;53.74;99630.13;335168;28;4698;-78
2023/05/28 00:49:06;;;;;;;5.53;2.72;;;;;;;15.28;53.90;99624.00;335395;28;4541;-78
2023/05/28 00:49:19;;;;;;;5.75;2.90;;;;;;;15.32;53.54;99628.97;332941;28;17789;-78
2023/05/28 00:49:32;;;;;;;6.07;3.05;;;;;;;15.31;53.64;99626.44;335427;29;5324;-78
2023/05/28 00:49:45;;;;;;;6.10;3.05;;;;;;;15.31;53.62;99629.06;332901;29;17843;-78
2023/05/28 00:50:00;;;;;;;6.93;2.88;;;;;;;15.32;53.49;99633.38;331895;29;17796;-78
2023/05/28 00:50:13;;;;;;;5.95;2.85;;;;;;;15.36;53.67;99627.06;332290;29;10757;-78
2023/05/28 00:50:25;;;;;;;4.57;2.90;;;;;;;15.35;53.90;99627.97;333419;29;4684;-78
2023/05/28 00:50:38;;;;;;;5.00;2.90;;;;;;;15.33;54.22;99632.44;329033;29;16729;-78
2023/05/28 00:50:51;;;;;;;5.82;2.80;;;;;;;15.32;53.97;99630.75;331727;29;4983;-78
2023/05/28 00:51:03;;;;;;;5.55;2.80;;;;;;;15.35;53.94;99635.81;330480;29;16432;-78
2023/05/28 00:51:15;;;;;;;4.25;2.70;;;;;;;15.34;53.99;99628.91;333664;28;4517;-78
2023/05/28 00:51:28;;;;;;;4.78;3.05;;;;;;;15.34;53.76;99634.16;330586;29;4656;-78
2023/05/28 00:51:41;;;;;;;5.82;3.20;;;;;;;15.40;53.77;99632.97;332967;29;4654;-78
2023/05/28 00:51:55;;;;;;;7.53;2.88;;;;;;;15.35;53.50;99627.97;329344;29;5209;-78
2023/05/28 00:52:09;;;;;;;7.28;2.90;;;;;;;15.39;54.20;99632.13;332312;29;5351;-78
2023/05/28 00:52:22;;;;;;;5.18;3.05;;;;;;;15.26;53.82;99626.69;331833;29;16897;-78
2023/05/28 00:52:35;;;;;;;5.75;3.13;;;;;;;15.17;53.99;99629.78;332618;28;18271;-78
2023/05/28 00:52:50;;;;;;;6.15;2.90;;;;;;;15.21;53.84;99625.22;331977;29;4553;-78
2023/05/28 00:53:03;;;;;;;5.65;2.78;;;;;;;15.24;54.24;99633.78;332060;29;5918;-78
2023/05/28 00:53:16;;;;;;;5.78;2.90;;;;;;;15.28;54.22;99626.59;334351;29;5196;-78
2023/05/28 00:53:28;;;;;;;5.78;2.90;;;;;;;15.31;53.86;99624.69;331822;29;18024;-78
2023/05/28 00:53:41;;;;;;;6.05;2.92;;;;;;;15.29;54.24;99637.00;334235;29;4659;-78
2023/05/28 00:53:54;;;;;;;5.28;2.97;;;;;;;15.31;54.19;99631.66;331997;29;18094;-78
2023/05/28 00:54:07;;;;;;;5.57;2.92;;;;;;;15.33;54.28;99630.69;335918;29;4490;-78
2023/05/28 00:54:19;;;;;;;5.05;2.90;;;;;;;15.35;54.10;99626.22;332979;29;17808;-78
2023/05/28 00:54:31;;;;;;;5.15;2.97;;;;;;;15.35;54.20;99631.44;335588;29;5049;-78
2023/05/28 00:54:43;;;;;;;5.57;2.83;;;;;;;15.29;53.73;99633.53;333194;29;18117;-78
2023/05/28 00:54:55;;;;;;;5.90;2.80;;;;;;;15.31;54.03;99634.28;335185;29;4651;-78
2023/05/28 00:55:15;;;;;;;6.78;2.90;;;;;;;15.38;54.29;99633.06;333371;28;17955;-78
2023/05/28 00:55:27;;;;;;;5.97;2.90;;;;;;;15.36;54.12;99634.91;332376;28;17552;-78
2023/05/28 00:55:39;;;;;;;6.15;2.90;;;;;;;15.35;55.05;99630.56;335253;28;4533;-79
2023/05/28 00:55:52;;;;;;;5.20;2.88;;;;;;;15.36;54.62;99627.06;336181;28;4503;-80
2023/05/28 00:56:05;;;;;;;5.47;2.83;;;;;;;15.30;54.16;99632.63;333130;28;18154;-77
2023/05/28 00:56:17;;;;;;;5.03;2.75;;;;;;;15.32;53.90;99633.38;334355;28;4608;-77
2023/05/28 00:56:31;;;;;;;5.20;2.65;;;;;;;15.29;54.12;99630.91;336019;29;5433;-77
2023/05/28 00:56:46;;;;;;;5.75;2.80;;;;;;;15.35;54.52;99633.19;338407;28;17738;-77
2023/05/28 00:56:58;;;;;;;6.47;2.95;;;;;;;15.33;54.12;99632.44;337347;28;17952;-77
2023/05/28 00:57:10;;;;;;;6.60;2.83;;;;;;;15.31;53.96;99629.91;339525;28;5111;-78
2023/05/28 00:57:24;;;;;;;6.30;2.88;;;;;;;15.29;54.06;99629.16;336035;28;18039;-77
2023/05/28 00:57:37;;;;;;;6.43;2.90;;;;;;;15.33;53.83;99628.06;338538;28;4697;-77
2023/05/28 00:57:53;;;;;;;6.38;3.05;;;;;;;15.27;53.72;99633.63;336644;28;18350;-80
2023/05/28 00:58:07;;;;;;;10.10;3.13;;;;;;;15.27;53.92;99631.00;336216;28;18383;-80
2023/05/28 00:58:20;;;;;;;10.93;3.25;;;;;;;15.20;53.91;99631.41;336035;28;18189;-80
2023/05/28 00:58:39;;;;;;;6.63;3.10;;;;;;;15.18;54.92;99631.47;337220;28;5218;-80
2023/05/28 00:58:51;;;;;;;5.32;2.70;;;;;;;15.11;53.96;99630.97;332094;28;18060;-80
2023/05/28 00:59:04;;;;;;;10.70;2.85;;;;;;;15.13;54.36;99625.63;333338;28;18722;-80
2023/05/28 00:59:19;;;;;;;10.43;2.85;;;;;;;15.21;54.12;99627.84;335097;29;4519;-80
2023/05/28 00:59:34;;;;;;;5.63;2.90;;;;;;;15.25;53.87;99629.38;334735;29;17615;-80
2023/05/28 00:59:46;;;;;;;5.85;2.90;;;;;;;15.21;54.05;99627.84;332213;28;18095;-80
2023/05/28 01:00:05;;;;;;;7.20;2.90;;;;;;;15.21;54.14;99633.91;332858;28;19392;-80
2023/05/28 01:00:18;;;;;;;6.35;2.83;;;;;;;15.03;53.98;99627.88;332356;28;17874;-80
2023/05/28 01:00:32;;;;;;;6.47;2.92;;;;;;;15.01;55.03;99623.63;335344;29;4624;-80
2023/05/28 01:00:45;;;;;;;7.72;3.10;;;;;;;15.07;54.72;99625.94;332392;29;18199;-80
2023/05/28 01:00:58;;;;;;;7.30;3.15;;;;;;;15.12;54.69;99630.00;332131;29;17442;-80